createdAt,value
2018-08-12T00:02:11.774Z,17.10
2018-08-12T00:04:39.973Z,17.10
2018-08-12T00:09:36.112Z,17.10
2018-08-12T00:12:05.078Z,17.10
2018-08-12T00:14:33.255Z,17.00
2018-08-12T00:17:01.439Z,16.90
2018-08-12T00:19:29.606Z,16.90
2018-08-12T00:21:57.808Z,16.90
2018-08-12T00:24:25.982Z,16.90
2018-08-12T00:26:54.236Z,16.90
2018-08-12T00:29:22.454Z,16.80
2018-08-12T00:31:50.681Z,16.70
2018-08-12T00:34:18.866Z,16.70
2018-08-12T00:36:47.058Z,16.70
2018-08-12T00:39:15.280Z,16.70
2018-08-12T00:41:43.529Z,16.70
2018-08-12T00:44:11.754Z,16.70
2018-08-12T00:46:39.941Z,16.60
2018-08-12T00:49:08.151Z,16.50
2018-08-12T00:51:36.355Z,16.40
2018-08-12T00:54:04.583Z,16.40
2018-08-12T00:59:00.800Z,16.30
2018-08-12T01:01:28.956Z,16.30
2018-08-12T01:03:57.169Z,16.20
2018-08-12T01:06:25.328Z,16.30
2018-08-12T01:08:53.645Z,16.30
2018-08-12T01:11:21.917Z,16.20
2018-08-12T01:13:50.170Z,16.10
2018-08-12T01:16:18.341Z,16.20
2018-08-12T01:18:46.497Z,16.20
2018-08-12T01:21:14.695Z,16.20
2018-08-12T01:23:42.880Z,16.20
2018-08-12T01:26:11.052Z,16.20
2018-08-12T01:28:39.267Z,16.20
2018-08-12T01:31:07.492Z,16.10
2018-08-12T01:36:03.735Z,16.00
2018-08-12T01:38:31.859Z,15.90
2018-08-12T01:41:00.221Z,15.90
2018-08-12T01:43:28.368Z,15.80
2018-08-12T01:45:56.627Z,15.80
2018-08-12T01:48:24.793Z,15.80
2018-08-12T01:50:52.972Z,15.80
2018-08-12T01:53:21.180Z,15.80
2018-08-12T01:55:49.344Z,15.80
2018-08-12T01:58:17.541Z,15.70
2018-08-12T02:03:13.849Z,15.70
2018-08-12T02:05:42.009Z,15.60
2018-08-12T02:10:38.120Z,15.60
2018-08-12T02:13:06.299Z,15.60
2018-08-12T02:15:34.472Z,15.50
2018-08-12T02:18:02.676Z,15.60
2018-08-12T02:20:30.844Z,15.50
2018-08-12T02:22:59.069Z,15.50
2018-08-12T02:25:27.239Z,15.50
2018-08-12T02:27:55.494Z,15.30
2018-08-12T02:30:23.664Z,15.30
2018-08-12T02:32:51.822Z,15.30
2018-08-12T02:35:20.076Z,15.30
2018-08-12T02:37:48.266Z,15.30
2018-08-12T02:40:16.460Z,15.30
2018-08-12T02:42:44.645Z,15.20
2018-08-12T02:45:14.822Z,15.20
2018-08-12T02:47:44.008Z,15.10
2018-08-12T02:50:12.217Z,15.10
2018-08-12T02:52:40.382Z,15.00
2018-08-12T02:55:09.916Z,14.90
2018-08-12T02:57:38.079Z,14.90
2018-08-12T03:00:07.563Z,14.80
2018-08-12T03:02:35.980Z,14.80
2018-08-12T03:05:04.350Z,14.70
2018-08-12T03:07:32.654Z,14.70
2018-08-12T03:10:00.841Z,14.80
2018-08-12T03:12:29.036Z,14.80
2018-08-12T03:14:57.230Z,14.80
2018-08-12T03:17:25.415Z,14.70
2018-08-12T03:19:53.606Z,14.60
2018-08-12T03:22:21.837Z,14.60
2018-08-12T03:24:49.989Z,14.60
2018-08-12T03:27:18.148Z,14.50
2018-08-12T03:29:46.342Z,14.50
2018-08-12T03:34:42.433Z,14.50
2018-08-12T03:37:10.654Z,14.50
2018-08-12T03:39:38.811Z,14.60
2018-08-12T03:42:06.997Z,14.60
2018-08-12T03:44:35.213Z,14.60
2018-08-12T03:47:03.412Z,14.50
2018-08-12T03:49:31.634Z,14.50
2018-08-12T03:51:59.791Z,14.50
2018-08-12T03:54:27.965Z,14.60
2018-08-12T03:56:56.122Z,14.50
2018-08-12T03:59:24.280Z,14.50
2018-08-12T04:01:52.456Z,14.40
2018-08-12T04:04:20.623Z,14.40
2018-08-12T04:06:48.797Z,14.40
2018-08-12T04:09:16.973Z,14.30
2018-08-12T04:11:45.175Z,14.40
2018-08-12T04:14:13.332Z,14.40
2018-08-12T04:16:45.853Z,14.40
2018-08-12T04:19:14.005Z,14.40
2018-08-12T04:21:42.168Z,14.30
2018-08-12T04:24:10.377Z,14.30
2018-08-12T04:26:38.558Z,14.40
2018-08-12T04:29:06.755Z,14.30
2018-08-12T04:31:34.944Z,14.30
2018-08-12T04:34:03.177Z,14.20
2018-08-12T04:36:31.316Z,14.30
2018-08-12T04:38:59.482Z,14.20
2018-08-12T04:41:27.667Z,14.20
2018-08-12T04:43:55.817Z,14.30
2018-08-12T04:46:24.030Z,14.20
2018-08-12T04:48:52.303Z,14.20
2018-08-12T04:51:20.465Z,14.20
2018-08-12T04:53:48.621Z,14.10
2018-08-12T04:56:16.817Z,14.00
2018-08-12T04:58:45.073Z,14.00
2018-08-12T05:01:13.239Z,14.10
2018-08-12T05:03:41.409Z,14.10
2018-08-12T05:06:09.641Z,14.10
2018-08-12T05:08:37.823Z,14.10
2018-08-12T05:11:06.038Z,14.10
2018-08-12T05:13:34.232Z,14.00
2018-08-12T05:16:02.472Z,14.00
2018-08-12T05:18:30.667Z,14.10
2018-08-12T05:23:26.748Z,14.10
2018-08-12T05:25:54.935Z,14.10
2018-08-12T05:28:23.141Z,14.10
2018-08-12T05:30:51.341Z,14.10
2018-08-12T05:33:19.535Z,14.00
2018-08-12T05:35:47.788Z,14.00
2018-08-12T05:38:15.975Z,14.10
2018-08-12T05:40:44.325Z,14.10
2018-08-12T05:43:12.561Z,14.10
2018-08-12T05:45:40.792Z,14.10
2018-08-12T05:48:09.007Z,14.10
2018-08-12T05:50:37.225Z,14.10
2018-08-12T05:53:05.426Z,14.20
2018-08-12T05:55:33.621Z,14.30
2018-08-12T05:58:01.895Z,14.30
2018-08-12T06:00:30.046Z,14.40
2018-08-12T06:02:58.309Z,14.40
2018-08-12T06:05:26.608Z,14.40
2018-08-12T06:07:54.792Z,14.60
2018-08-12T06:10:24.182Z,14.50
2018-08-12T06:12:52.365Z,14.60
2018-08-12T06:15:20.568Z,14.60
2018-08-12T06:17:48.803Z,14.70
2018-08-12T06:22:44.940Z,14.90
2018-08-12T06:25:13.165Z,15.00
2018-08-12T06:27:41.695Z,15.10
2018-08-12T06:30:13.032Z,15.10
2018-08-12T06:32:41.228Z,15.20
2018-08-12T06:35:10.351Z,15.30
2018-08-12T06:37:38.557Z,15.30
2018-08-12T06:40:09.708Z,15.40
2018-08-12T06:42:38.395Z,15.50
2018-08-12T06:47:45.008Z,15.70
2018-08-12T06:50:13.189Z,15.70
2018-08-12T06:52:41.777Z,15.80
2018-08-12T06:55:11.408Z,15.80
2018-08-12T06:57:40.183Z,15.80
2018-08-12T07:00:10.420Z,15.90
2018-08-12T07:02:38.589Z,15.90
2018-08-12T07:05:08.017Z,16.00
2018-08-12T07:07:36.413Z,16.10
2018-08-12T07:10:06.750Z,16.20
2018-08-12T07:12:35.003Z,16.30
2018-08-12T07:15:03.647Z,16.30
2018-08-12T07:17:31.913Z,16.30
2018-08-12T07:22:28.057Z,16.30
2018-08-12T07:24:56.229Z,16.40
2018-08-12T07:27:24.409Z,16.50
2018-08-12T07:29:52.600Z,16.50
2018-08-12T07:32:20.754Z,16.50
2018-08-12T07:34:49.282Z,16.60
2018-08-12T07:37:17.503Z,16.60
2018-08-12T07:39:45.693Z,16.70
2018-08-12T07:47:09.792Z,16.90
2018-08-12T07:49:37.971Z,17.00
2018-08-12T07:52:06.443Z,17.00
2018-08-12T07:54:34.614Z,17.10
2018-08-12T07:57:02.750Z,17.10
2018-08-12T07:59:30.893Z,17.20
2018-08-12T08:01:59.060Z,17.40
2018-08-12T08:04:27.231Z,17.60
2018-08-12T08:06:55.504Z,17.70
2018-08-12T08:09:23.691Z,17.70
2018-08-12T08:11:52.516Z,17.70
2018-08-12T08:14:20.690Z,17.70
2018-08-12T08:16:48.849Z,17.80
2018-08-12T08:19:17.030Z,17.90
2018-08-12T08:21:45.244Z,18.00
2018-08-12T08:24:13.442Z,18.10
2018-08-12T08:26:41.647Z,18.10
2018-08-12T08:29:09.846Z,18.20
2018-08-12T08:31:38.112Z,18.30
2018-08-12T08:34:06.227Z,18.20
2018-08-12T08:36:34.393Z,18.30
2018-08-12T08:39:02.565Z,18.40
2018-08-12T08:41:30.759Z,18.50
2018-08-12T08:43:59.032Z,18.50
2018-08-12T08:46:28.185Z,18.50
2018-08-12T08:48:56.353Z,18.80
2018-08-12T08:51:24.578Z,18.80
2018-08-12T08:53:52.769Z,18.90
2018-08-12T08:56:20.938Z,18.90
2018-08-12T08:58:49.164Z,18.90
2018-08-12T09:01:17.337Z,19.20
2018-08-12T09:03:45.614Z,19.20
2018-08-12T09:06:13.998Z,19.40
2018-08-12T09:08:49.024Z,19.40
2018-08-12T09:11:17.041Z,19.50
2018-08-12T09:13:45.442Z,19.60
2018-08-12T09:16:13.641Z,19.70
2018-08-12T09:18:41.784Z,20.10
2018-08-12T09:21:09.938Z,20.10
2018-08-12T09:23:38.169Z,20.20
2018-08-12T09:26:06.318Z,20.10
2018-08-12T09:28:34.522Z,20.30
2018-08-12T09:31:02.822Z,20.30
2018-08-12T09:33:31.354Z,20.40
2018-08-12T09:35:59.545Z,20.60
2018-08-12T09:38:27.731Z,20.60
2018-08-12T09:40:55.866Z,20.60
2018-08-12T09:43:24.052Z,20.60
2018-08-12T09:45:52.277Z,20.60
2018-08-12T09:48:20.412Z,20.80
2018-08-12T09:50:48.636Z,20.90
2018-08-12T09:53:16.794Z,20.90
2018-08-12T09:55:44.964Z,21.00
2018-08-12T09:58:13.168Z,21.20
2018-08-12T10:00:42.020Z,21.20
2018-08-12T10:03:10.886Z,21.20
2018-08-12T10:05:40.224Z,21.40
2018-08-12T10:08:08.759Z,21.40
2018-08-12T10:10:36.979Z,21.60
2018-08-12T10:13:05.394Z,21.90
2018-08-12T10:15:33.677Z,21.80
2018-08-12T10:18:03.885Z,21.90
2018-08-12T10:20:32.379Z,21.90
2018-08-12T10:23:00.600Z,21.90
2018-08-12T10:25:29.103Z,22.00
2018-08-12T10:30:25.752Z,22.20
2018-08-12T10:32:53.975Z,22.20
2018-08-12T10:35:23.190Z,22.30
2018-08-12T10:37:51.531Z,22.40
2018-08-12T10:40:20.741Z,22.40
2018-08-12T10:42:49.978Z,22.40
2018-08-12T10:45:18.193Z,22.60
2018-08-12T10:47:46.961Z,22.60
2018-08-12T10:50:17.885Z,22.70
2018-08-12T10:52:47.393Z,22.80
2018-08-12T10:55:17.324Z,22.80
2018-08-12T10:57:45.781Z,22.90
2018-08-12T11:00:25.591Z,23.00
2018-08-12T11:02:54.020Z,23.00
2018-08-12T11:05:22.259Z,23.00
2018-08-12T11:07:55.700Z,23.10
2018-08-12T11:10:24.243Z,23.10
2018-08-12T11:12:52.568Z,23.20
2018-08-12T11:15:20.623Z,23.30
2018-08-12T11:17:48.838Z,23.30
2018-08-12T11:20:17.157Z,23.50
2018-08-12T11:22:45.349Z,23.30
2018-08-12T11:25:13.981Z,23.40
2018-08-12T11:27:42.173Z,23.40
2018-08-12T11:30:12.298Z,23.50
2018-08-12T11:32:40.825Z,23.70
2018-08-12T11:35:10.864Z,23.80
2018-08-12T11:37:39.710Z,23.70
2018-08-12T11:40:09.088Z,23.90
2018-08-12T11:42:37.371Z,23.90
2018-08-12T11:47:34.850Z,24.00
2018-08-12T11:50:03.121Z,24.00
2018-08-12T11:52:31.557Z,24.00
2018-08-12T11:54:59.983Z,24.00
2018-08-12T11:57:28.167Z,24.10
2018-08-12T11:59:56.512Z,24.10
2018-08-12T12:02:24.769Z,24.20
2018-08-12T12:04:54.058Z,24.20
2018-08-12T12:07:22.230Z,24.10
2018-08-12T12:09:50.565Z,24.40
2018-08-12T12:12:18.978Z,24.30
2018-08-12T12:14:47.425Z,24.40
2018-08-12T12:17:15.706Z,24.50
2018-08-12T12:19:44.232Z,24.60
2018-08-12T12:22:12.551Z,24.60
2018-08-12T12:24:40.861Z,24.90
2018-08-12T12:27:09.232Z,24.90
2018-08-12T12:29:37.516Z,24.90
2018-08-12T12:34:33.819Z,24.90
2018-08-12T12:37:02.065Z,24.80
2018-08-12T12:39:30.348Z,24.90
2018-08-12T12:41:58.696Z,24.90
2018-08-12T12:44:27.064Z,25.10
2018-08-12T12:46:55.484Z,25.20
2018-08-12T12:49:23.759Z,25.10
2018-08-12T12:51:51.958Z,25.10
2018-08-12T12:54:20.157Z,25.10
2018-08-12T12:56:48.308Z,25.20
2018-08-12T12:59:16.475Z,25.30
2018-08-12T13:01:44.754Z,25.30
2018-08-12T13:04:12.952Z,25.30
2018-08-12T13:09:11.142Z,25.30
2018-08-12T13:11:39.395Z,25.40
2018-08-12T13:14:08.214Z,25.30
2018-08-12T13:16:36.619Z,25.30
2018-08-12T13:19:05.116Z,25.30
2018-08-12T13:21:33.311Z,25.50
2018-08-12T13:24:01.605Z,25.50
2018-08-12T13:26:29.753Z,25.60
2018-08-12T13:28:57.905Z,25.80
2018-08-12T13:31:26.077Z,25.90
2018-08-12T13:33:54.334Z,25.80
2018-08-12T13:36:22.583Z,25.80
2018-08-12T13:38:50.749Z,25.80
2018-08-12T13:41:18.931Z,25.80
2018-08-12T13:43:47.076Z,25.70
2018-08-12T13:46:15.295Z,25.70
2018-08-12T13:48:43.461Z,25.90
2018-08-12T13:51:11.620Z,26.10
2018-08-12T13:53:39.813Z,26.00
2018-08-12T13:56:07.969Z,26.00
2018-08-12T13:58:36.151Z,26.00
2018-08-12T14:01:04.365Z,26.10
2018-08-12T14:03:32.541Z,26.10
2018-08-12T14:06:00.726Z,26.30
2018-08-12T14:08:28.878Z,26.70
2018-08-12T14:10:57.033Z,26.70
2018-08-12T14:13:25.180Z,26.90
2018-08-12T14:15:53.345Z,26.90
2018-08-12T14:18:21.533Z,27.00
2018-08-12T14:20:49.688Z,27.30
2018-08-12T14:23:17.859Z,27.30
2018-08-12T14:25:46.151Z,27.30
2018-08-12T14:28:14.331Z,27.40
2018-08-12T14:30:42.529Z,27.60
2018-08-12T14:33:10.997Z,28.40
2018-08-12T14:35:39.175Z,29.40
2018-08-12T14:38:07.348Z,28.60
2018-08-12T14:40:35.568Z,28.50
2018-08-12T14:43:03.796Z,28.10
2018-08-12T14:45:31.965Z,28.20
2018-08-12T14:48:02.098Z,28.20
2018-08-12T14:50:30.336Z,28.50
2018-08-12T14:52:58.500Z,28.50
2018-08-12T14:55:26.632Z,28.80
2018-08-12T15:00:22.760Z,28.80
2018-08-12T15:02:52.158Z,29.20
2018-08-12T15:05:20.350Z,29.10
2018-08-12T15:07:48.765Z,29.30
2018-08-12T15:10:17.042Z,29.20
2018-08-12T15:12:45.319Z,29.20
2018-08-12T15:15:14.676Z,28.70
2018-08-12T15:17:44.021Z,28.40
2018-08-12T15:20:12.908Z,28.40
2018-08-12T15:22:41.307Z,29.10
2018-08-12T15:25:11.428Z,29.20
2018-08-12T15:27:39.628Z,29.50
2018-08-12T15:30:08.877Z,29.50
2018-08-12T15:32:37.076Z,29.50
2018-08-12T15:35:05.316Z,29.00
2018-08-12T15:37:33.612Z,29.30
2018-08-12T15:40:01.756Z,29.20
2018-08-12T15:42:29.936Z,29.40
2018-08-12T15:44:58.407Z,30.80
2018-08-12T15:47:26.564Z,30.90
2018-08-12T15:49:54.847Z,30.90
2018-08-12T15:52:23.737Z,31.00
2018-08-12T15:54:52.012Z,31.10
2018-08-12T15:57:20.213Z,31.80
2018-08-12T15:59:48.397Z,31.90
2018-08-12T16:02:16.773Z,31.70
2018-08-12T16:04:44.928Z,31.00
2018-08-12T16:07:13.124Z,31.00
2018-08-12T16:09:41.364Z,32.90
2018-08-12T16:12:09.782Z,32.90
2018-08-12T16:14:38.005Z,32.50
2018-08-12T16:17:06.527Z,32.20
2018-08-12T16:22:03.086Z,32.90
2018-08-12T16:24:31.280Z,33.10
2018-08-12T16:26:59.455Z,33.00
2018-08-12T16:29:27.652Z,32.50
2018-08-12T16:31:55.843Z,32.10
2018-08-12T16:34:24.137Z,32.40
2018-08-12T16:36:52.328Z,31.50
2018-08-12T16:39:20.526Z,31.50
2018-08-12T16:41:49.083Z,30.80
2018-08-12T16:44:17.436Z,32.30
2018-08-12T16:46:45.564Z,33.10
2018-08-12T16:49:13.731Z,33.50
2018-08-12T16:51:42.471Z,34.10
2018-08-12T16:54:10.682Z,34.50
2018-08-12T16:56:38.930Z,33.40
2018-08-12T16:59:07.040Z,33.50
2018-08-12T17:01:36.097Z,32.60
2018-08-12T17:04:04.364Z,32.60
2018-08-12T17:06:32.538Z,32.00
2018-08-12T17:09:00.872Z,32.20
2018-08-12T17:11:29.024Z,30.70
2018-08-12T17:13:57.197Z,30.70
2018-08-12T17:16:25.368Z,30.80
2018-08-12T17:18:53.562Z,30.20
2018-08-12T17:21:21.782Z,29.90
2018-08-12T17:23:49.930Z,29.50
2018-08-12T17:26:18.335Z,29.40
2018-08-12T17:28:46.503Z,28.90
2018-08-12T17:31:14.660Z,28.40
2018-08-12T17:33:42.832Z,28.30
2018-08-12T17:36:10.995Z,28.30
2018-08-12T17:38:39.189Z,28.10
2018-08-12T17:41:07.317Z,27.80
2018-08-12T17:43:35.546Z,27.50
2018-08-12T17:46:03.721Z,27.40
2018-08-12T17:48:31.892Z,27.40
2018-08-12T17:51:00.029Z,27.20
2018-08-12T17:53:28.215Z,27.20
2018-08-12T17:55:56.382Z,27.20
2018-08-12T17:58:24.560Z,27.10
2018-08-12T18:00:52.733Z,27.00
2018-08-12T18:03:20.937Z,26.90
2018-08-12T18:05:49.112Z,26.90
2018-08-12T18:08:17.283Z,26.90
2018-08-12T18:10:45.425Z,26.80
2018-08-12T18:13:13.690Z,26.70
2018-08-12T18:15:41.887Z,26.70
2018-08-12T18:18:10.249Z,26.60
2018-08-12T18:20:38.437Z,26.50
2018-08-12T18:23:06.589Z,26.50
2018-08-12T18:25:34.770Z,27.00
2018-08-12T18:28:03.013Z,27.20
2018-08-12T18:30:31.209Z,27.20
2018-08-12T18:32:59.499Z,27.00
2018-08-12T18:35:27.675Z,26.70
2018-08-12T18:37:55.845Z,26.60
2018-08-12T18:40:24.205Z,26.20
2018-08-12T18:42:52.485Z,26.20
2018-08-12T18:45:20.666Z,26.20
2018-08-12T18:47:48.809Z,26.10
2018-08-12T18:50:17.089Z,26.00
2018-08-12T18:52:45.289Z,25.90
2018-08-12T18:55:13.602Z,25.80
2018-08-12T18:57:41.769Z,25.50
2018-08-12T19:00:11.945Z,25.50
2018-08-12T19:02:40.176Z,25.50
2018-08-12T19:05:09.359Z,25.40
2018-08-12T19:07:37.549Z,25.30
2018-08-12T19:10:06.554Z,25.20
2018-08-12T19:12:34.812Z,25.10
2018-08-12T19:15:03.023Z,25.00
2018-08-12T19:17:31.212Z,24.90
2018-08-12T19:19:59.451Z,24.90
2018-08-12T19:22:28.017Z,24.80
2018-08-12T19:24:56.254Z,24.80
2018-08-12T19:27:24.421Z,24.70
2018-08-12T19:29:52.589Z,24.70
2018-08-12T19:32:20.864Z,24.70
2018-08-12T19:34:49.083Z,24.60
2018-08-12T19:37:17.187Z,24.60
2018-08-12T19:39:45.405Z,24.60
2018-08-12T19:42:13.592Z,24.50
2018-08-12T19:44:42.400Z,24.40
2018-08-12T19:47:10.635Z,24.40
2018-08-12T19:49:39.818Z,24.40
2018-08-12T19:52:08.007Z,24.40
2018-08-12T19:54:36.295Z,24.20
2018-08-12T19:57:04.487Z,24.10
2018-08-12T19:59:32.652Z,24.10
2018-08-12T20:02:01.004Z,24.00
2018-08-12T20:04:29.264Z,23.80
2018-08-12T20:06:57.461Z,23.50
2018-08-12T20:09:25.676Z,23.50
2018-08-12T20:16:50.050Z,23.20
2018-08-12T20:19:18.303Z,23.00
2018-08-12T20:21:46.477Z,22.80
2018-08-12T20:24:14.711Z,22.80
2018-08-12T20:26:42.948Z,22.70
2018-08-12T20:29:11.163Z,22.60
2018-08-12T20:31:39.376Z,22.50
2018-08-12T20:34:07.598Z,22.40
2018-08-12T20:36:35.827Z,22.30
2018-08-12T20:39:06.399Z,22.20
2018-08-12T20:41:34.612Z,22.20
2018-08-12T20:44:02.857Z,22.20
2018-08-12T20:46:31.035Z,22.20
2018-08-12T20:48:59.487Z,22.20
2018-08-12T20:51:27.720Z,22.00
2018-08-12T20:53:55.913Z,22.00
2018-08-12T20:56:24.223Z,21.90
2018-08-12T20:58:52.468Z,21.90
2018-08-12T21:01:20.730Z,21.80
2018-08-12T21:03:49.035Z,21.80
2018-08-12T21:06:17.458Z,21.90
2018-08-12T21:08:45.668Z,21.80
2018-08-12T21:11:13.865Z,21.60
2018-08-12T21:13:42.049Z,21.50
2018-08-12T21:16:10.223Z,21.50
2018-08-12T21:18:38.403Z,21.40
2018-08-12T21:21:06.544Z,21.50
2018-08-12T21:23:34.746Z,21.50
2018-08-12T21:26:02.915Z,21.50
2018-08-12T21:28:31.095Z,21.40
2018-08-12T21:30:59.261Z,21.30
2018-08-12T21:33:27.471Z,21.30
2018-08-12T21:35:55.601Z,21.40
2018-08-12T21:38:23.774Z,21.40
2018-08-12T21:40:51.962Z,21.50
2018-08-12T21:43:20.244Z,21.50
2018-08-12T21:45:48.589Z,21.50
2018-08-12T21:48:16.744Z,21.50
2018-08-12T21:50:44.898Z,21.50
2018-08-12T21:53:13.048Z,21.40
2018-08-12T21:55:41.205Z,21.40
2018-08-12T21:58:09.392Z,21.40
2018-08-12T22:00:37.568Z,21.30
2018-08-12T22:03:06.236Z,21.30
2018-08-12T22:05:34.404Z,21.30
2018-08-12T22:08:06.821Z,21.30
2018-08-12T22:10:35.173Z,21.30
2018-08-12T22:13:03.446Z,21.20
2018-08-12T22:15:31.621Z,21.20
2018-08-12T22:17:59.781Z,21.20
2018-08-12T22:20:27.985Z,21.10
2018-08-12T22:22:56.170Z,21.10
2018-08-12T22:25:24.385Z,21.00
2018-08-12T22:27:52.533Z,21.00
2018-08-12T22:30:20.867Z,21.00
2018-08-12T22:32:49.014Z,20.90
2018-08-12T22:35:17.201Z,20.90
2018-08-12T22:37:45.415Z,20.80
2018-08-12T22:40:13.577Z,20.80
2018-08-12T22:42:41.738Z,20.80
2018-08-12T22:47:38.997Z,20.70
2018-08-12T22:50:07.876Z,20.60
2018-08-12T22:52:36.061Z,20.60
2018-08-12T22:55:04.676Z,20.60
2018-08-12T22:57:32.880Z,20.60
2018-08-12T23:00:01.044Z,20.50
2018-08-12T23:02:29.243Z,20.50
2018-08-12T23:04:57.517Z,20.40
2018-08-12T23:07:25.698Z,20.40
2018-08-12T23:09:53.851Z,20.40
2018-08-12T23:12:22.668Z,20.40
2018-08-12T23:14:50.898Z,20.30
2018-08-12T23:17:19.060Z,20.20
2018-08-12T23:19:53.577Z,20.20
2018-08-12T23:22:21.988Z,20.20
2018-08-12T23:24:50.122Z,20.10
2018-08-12T23:27:18.273Z,20.10
2018-08-12T23:29:46.432Z,20.10
2018-08-12T23:32:14.696Z,19.90
2018-08-12T23:34:42.853Z,20.00
2018-08-12T23:37:11.021Z,19.90
2018-08-12T23:39:39.184Z,19.90
2018-08-12T23:42:07.348Z,19.90
2018-08-12T23:44:35.498Z,19.70
2018-08-12T23:47:03.756Z,19.70
2018-08-12T23:49:31.912Z,19.70
2018-08-12T23:52:00.064Z,19.70
2018-08-12T23:54:28.256Z,19.70
2018-08-12T23:56:56.416Z,19.80
2018-08-12T23:59:25.517Z,19.70
